Airport View

Enter AWOS ICAO identifier for current METAR.

ex. KFNL

KDRO 111853Z AUTO 00000KT 10SM CLR 02/M04 A3025 RMK AO2 SLP276 T00221039

11 Dec 2019 20:01

Frequency: 120.625

Phone: 970-259-3579

Other Area AWOS: KFMN - KPSO - KCEZ - KTEX

TAF KDRO 111739Z 1118/1218 VRB03KT P6SM FEW100 FM112000 VRB04KT P6SM SCT100 BKN200 FM120100 VRB04KT P6SM FEW090 SCT180 FM120800 VRB04KT P6SM SKC